Time;durP1;ratioP1;P1;durP2;ratioP2;P2;SDS_P1;SDS_P2;PMS_P1;PMS_P2;Temp;Humidity;BMP_temperature;BMP_pressure;BME280_temperature;BME280_humidity;BME280_pressure;Samples;Min_cycle;Max_cycle;Signal;HPM_P1;HPM_P2
2021/09/12 00:01:22;;;;;;;61.17;32.42;;;13.20;99.90;;;;;;4953048;29;20192;-95
2021/09/12 00:03:48;;;;;;;55.47;30.40;;;13.20;99.90;;;;;;4951071;29;20200;-96
2021/09/12 00:06:14;;;;;;;53.13;30.63;;;13.20;99.90;;;;;;4947619;29;20186;-95
2021/09/12 00:08:40;;;;;;;55.28;31.15;;;;;;;;;;4919389;29;20184;-96
2021/09/12 00:11:06;;;;;;;52.50;30.40;;;12.80;99.90;;;;;;4943674;29;20211;-95
2021/09/12 00:13:32;;;;;;;54.80;30.23;;;13.10;99.90;;;;;;4943262;29;20198;-96
2021/09/12 00:15:58;;;;;;;49.63;29.55;;;13.10;99.90;;;;;;4945448;29;20183;-92
2021/09/12 00:18:23;;;;;;;49.15;30.55;;;13.10;99.90;;;;;;4947067;29;20208;-96
2021/09/12 00:20:49;;;;;;;55.88;31.00;;;13.10;99.90;;;;;;4951385;29;20292;-96
2021/09/12 00:23:15;;;;;;;57.55;31.13;;;13.00;99.90;;;;;;4948963;29;20532;-94
2021/09/12 00:25:41;;;;;;;51.78;28.92;;;13.00;99.90;;;;;;4918746;29;20194;-96
2021/09/12 00:28:07;;;;;;;50.78;28.70;;;13.00;99.90;;;;;;4940482;29;20216;-95
2021/09/12 00:30:33;;;;;;;54.25;29.90;;;13.00;99.90;;;;;;4939162;29;20199;-96
2021/09/12 00:32:58;;;;;;;51.90;30.05;;;13.00;99.90;;;;;;4922697;29;20256;-96
2021/09/12 00:35:24;;;;;;;50.38;29.13;;;13.00;99.90;;;;;;4956252;29;20191;-96
2021/09/12 00:37:50;;;;;;;57.28;30.52;;;13.00;99.90;;;;;;4937295;29;20218;-96
2021/09/12 00:40:20;;;;;;;55.63;29.42;;;13.00;99.90;;;;;;4928737;29;20184;-96
2021/09/12 00:42:46;;;;;;;52.67;28.23;;;12.90;99.90;;;;;;4928173;29;20228;-95
2021/09/12 00:45:12;;;;;;;57.33;28.90;;;13.00;99.90;;;;;;4919874;29;20256;-94
2021/09/12 00:47:38;;;;;;;48.28;27.85;;;12.90;99.90;;;;;;4918578;29;20184;-95
2021/09/12 00:50:05;;;;;;;53.28;28.92;;;13.00;99.90;;;;;;4917172;29;20188;-95
2021/09/12 00:52:33;;;;;;;53.72;27.35;;;12.90;99.90;;;;;;4918284;29;20665;-95
2021/09/12 00:55:01;;;;;;;50.25;28.25;;;12.90;99.90;;;;;;4918294;29;20179;-95
2021/09/12 00:57:27;;;;;;;49.40;27.95;;;13.00;99.90;;;;;;4916898;29;20220;-95
2021/09/12 00:59:54;;;;;;;47.33;28.00;;;12.90;99.90;;;;;;4918913;29;20184;-95
2021/09/12 01:02:20;;;;;;;45.92;27.25;;;13.00;99.90;;;;;;4918016;29;20187;-95
2021/09/12 01:04:46;;;;;;;51.75;27.63;;;12.90;99.90;;;;;;4902930;29;20646;-95
2021/09/12 01:07:13;;;;;;;48.28;27.48;;;12.90;99.90;;;;;;4916931;29;20195;-94
2021/09/12 01:09:40;;;;;;;44.63;27.30;;;12.90;99.90;;;;;;4917442;29;20244;-95
2021/09/12 01:12:08;;;;;;;43.20;25.80;;;12.90;99.90;;;;;;4917507;29;20542;-93
2021/09/12 01:14:34;;;;;;;50.47;25.27;;;12.90;99.90;;;;;;4917096;29;20200;-95
2021/09/12 01:17:01;;;;;;;47.58;26.30;;;12.90;99.90;;;;;;4918615;29;20670;-95
2021/09/12 01:19:27;;;;;;;46.05;25.60;;;12.90;99.90;;;;;;4901586;29;20701;-94
2021/09/12 01:22:01;;;;;;;40.97;25.30;;;12.90;99.90;;;;;;4901798;29;20221;-95
2021/09/12 01:24:29;;;;;;;44.78;25.83;;;12.70;99.90;;;;;;4930434;29;20160;-96
2021/09/12 01:26:55;;;;;;;41.42;25.45;;;12.90;99.90;;;;;;4932875;29;20188;-95
2021/09/12 01:29:21;;;;;;;41.40;24.77;;;12.80;99.90;;;;;;4937827;29;20240;-96
2021/09/12 01:31:46;;;;;;;40.80;24.50;;;12.80;99.90;;;;;;4940125;29;20177;-96
2021/09/12 01:44:36;;;;;;;42.25;24.38;;;;;;;;;;5752030;23;20311;-95
2021/09/12 01:47:02;;;;;;;39.83;25.88;;;;;;;;;;4913605;29;20216;-95
2021/09/12 01:49:28;;;;;;;42.85;25.77;;;;;;;;;;4915717;29;20248;-96
2021/09/12 01:51:54;;;;;;;41.13;25.20;;;;;;;;;;4918187;29;20190;-95
2021/09/12 01:54:20;;;;;;;38.92;24.23;;;;;;;;;;4902124;29;20196;-95
2021/09/12 01:56:46;;;;;;;37.42;23.88;;;;;;;;;;4913668;29;20208;-95
2021/09/12 01:59:12;;;;;;;43.30;22.95;;;;;;;;;;4920920;29;20256;-92
2021/09/12 02:01:38;;;;;;;38.38;23.83;;;;;;;;;;4922561;29;20185;-95
2021/09/12 02:04:05;;;;;;;37.92;22.15;;;;;;;;;;4921593;29;20184;-95
2021/09/12 02:06:31;;;;;;;38.80;22.80;;;;;;;;;;4922283;29;20188;-95
2021/09/12 02:08:57;;;;;;;40.85;23.83;;;;;;;;;;4936236;29;20187;-95
2021/09/12 02:11:23;;;;;;;43.85;23.30;;;;;;;;;;4918630;29;20188;-94
2021/09/12 02:13:49;;;;;;;41.97;23.35;;;;;;;;;;4932975;29;20215;-95
2021/09/12 02:16:17;;;;;;;40.60;22.80;;;;;;;;;;4929681;29;20232;-94
2021/09/12 02:18:43;;;;;;;37.33;22.65;;;;;;;;;;4926497;29;20215;-94
2021/09/12 02:21:10;;;;;;;39.58;23.35;;;;;;;;;;4930549;29;20220;-95
2021/09/12 02:23:36;;;;;;;44.60;23.40;;;;;;;;;;4941964;29;20185;-95
2021/09/12 02:26:02;;;;;;;44.35;23.77;;;;;;;;;;4926043;29;20231;-96
2021/09/12 02:28:28;;;;;;;37.75;22.55;;;;;;;;;;4942881;28;20168;-95
2021/09/12 02:30:54;;;;;;;41.05;23.48;;;;;;;;;;4943231;28;20169;-95
2021/09/12 02:33:20;;;;;;;38.92;23.48;;;;;;;;;;4921113;29;20201;-94
2021/09/12 02:35:46;;;;;;;38.47;23.27;;;;;;;;;;4938582;29;20200;-95
2021/09/12 02:38:12;;;;;;;34.78;22.70;;;;;;;;;;4923691;29;20272;-96
2021/09/12 02:43:13;;;;;;;37.13;22.42;;;;;;;;;;4943698;29;20212;-86
2021/09/12 02:45:39;;;;;;;42.15;23.80;;;;;;;;;;4944848;29;20205;-86
2021/09/12 02:48:06;;;;;;;41.72;24.58;;;;;;;;;;4928746;29;20153;-86
2021/09/12 02:50:32;;;;;;;40.15;22.27;;;;;;;;;;4928499;29;20145;-86
2021/09/12 02:52:58;;;;;;;33.97;22.35;;;;;;;;;;4944968;29;20216;-86
2021/09/12 02:55:24;;;;;;;41.65;23.73;;;;;;;;;;4928446;29;20173;-87
2021/09/12 02:57:50;;;;;;;40.17;23.40;;;;;;;;;;5138645;23;20235;-95
2021/09/12 03:00:17;;;;;;;36.67;22.27;;;;;;;;;;4925588;29;20240;-94
2021/09/12 03:05:19;;;;;;;37.35;22.38;;;;;;;;;;5490136;23;20236;-86
2021/09/12 03:07:45;;;;;;;36.42;21.58;;;;;;;;;;4924229;29;20187;-95
2021/09/12 03:10:11;;;;;;;40.90;20.50;;;;;;;;;;4935689;23;20226;-95
2021/09/12 03:12:37;;;;;;;41.03;22.65;;;;;;;;;;4923023;29;20162;-94
2021/09/12 03:15:03;;;;;;;40.55;22.92;;;;;;;;;;4924194;29;20201;-95
2021/09/12 03:17:29;;;;;;;37.35;22.10;;;;;;;;;;4924019;29;20223;-89
2021/09/12 03:19:56;;;;;;;35.03;22.02;;;;;;;;;;4923369;29;20245;-95
2021/09/12 03:22:24;;;;;;;34.42;21.63;;;;;;;;;;4921809;29;20185;-86
2021/09/12 03:24:51;;;;;;;39.28;20.70;;;;;;;;;;4924022;29;20206;-92
2021/09/12 03:27:19;;;;;;;34.75;21.63;;;;;;;;;;5119022;23;20291;-95
2021/09/12 03:29:45;;;;;;;38.65;22.02;;;;;;;;;;4942152;29;20156;-95
2021/09/12 03:32:11;;;;;;;39.28;22.40;;;;;;;;;;4941498;29;20244;-95
2021/09/12 03:34:37;;;;;;;37.70;22.02;;;;;;;;;;4942147;28;20204;-93
2021/09/12 03:37:04;;;;;;;33.40;20.60;;;;;;;;;;5016275;23;20241;-94
2021/09/12 03:39:30;;;;;;;38.70;21.83;;;;;;;;;;4904460;29;20181;-94
2021/09/12 03:41:55;;;;;;;39.85;22.15;;;12.70;99.90;;;;;;4901519;29;20213;-93
2021/09/12 03:44:21;;;;;;;34.25;22.27;;;;;;;;;;4900876;29;20236;-88
2021/09/12 03:46:47;;;;;;;38.03;22.33;;;;;;;;;;4911680;29;20244;-95
2021/09/12 03:49:13;;;;;;;41.20;22.52;;;;;;;;;;4915509;29;20177;-95
2021/09/12 03:51:40;;;;;;;37.28;21.42;;;;;;;;;;4910832;29;20181;-96
2021/09/12 03:54:06;;;;;;;42.50;21.80;;;;;;;;;;4904231;29;20185;-94
2021/09/12 03:56:31;;;;;;;34.72;20.60;;;12.60;99.90;;;;;;4900744;29;20177;-95
2021/09/12 03:58:57;;;;;;;39.10;20.92;;;;;;;;;;4899463;29;20222;-94
2021/09/12 04:01:23;;;;;;;38.00;20.25;;;12.60;99.90;;;;;;4883435;29;20671;-86
2021/09/12 04:03:49;;;;;;;37.10;21.75;;;12.60;99.90;;;;;;4898823;29;20193;-93
2021/09/12 04:06:14;;;;;;;43.42;23.67;;;12.60;99.90;;;;;;4900132;29;20185;-95
2021/09/12 04:08:40;;;;;;;33.47;19.42;;;12.60;99.90;;;;;;4884031;29;20221;-93
2021/09/12 04:11:05;;;;;;;28.08;18.83;;;12.60;99.90;;;;;;4867727;29;20233;-95
2021/09/12 04:13:31;;;;;;;34.95;19.48;;;12.60;99.90;;;;;;4900183;29;20185;-92
2021/09/12 04:15:57;;;;;;;36.05;19.23;;;12.60;99.90;;;;;;4900621;29;20189;-92
2021/09/12 04:18:22;;;;;;;33.45;19.20;;;12.70;99.90;;;;;;4900688;29;20582;-96
2021/09/12 04:20:48;;;;;;;39.65;19.83;;;12.70;99.90;;;;;;4903494;29;20550;-95
2021/09/12 04:23:13;;;;;;;32.00;18.98;;;12.80;99.90;;;;;;4899011;29;20248;-93
2021/09/12 04:25:39;;;;;;;34.55;18.67;;;12.80;99.90;;;;;;4898251;29;20189;-94
2021/09/12 04:28:05;;;;;;;33.25;18.38;;;12.90;99.90;;;;;;4901307;29;20217;-94
2021/09/12 04:30:31;;;;;;;33.63;19.25;;;;;;;;;;4900784;29;20181;-95
2021/09/12 04:32:56;;;;;;;30.80;18.35;;;13.00;99.90;;;;;;4902016;29;20189;-93
2021/09/12 04:35:22;;;;;;;34.10;17.63;;;13.00;99.90;;;;;;4899843;29;20535;-94
2021/09/12 04:37:47;;;;;;;34.00;18.88;;;13.00;99.90;;;;;;4882441;29;20251;-95
2021/09/12 04:40:13;;;;;;;29.77;18.08;;;13.10;99.90;;;;;;4899401;29;20579;-95
2021/09/12 04:42:39;;;;;;;29.60;19.00;;;13.10;99.90;;;;;;4906447;29;20177;-91
2021/09/12 04:45:05;;;;;;;40.10;18.63;;;;;;;;;;4915260;29;20177;-94
2021/09/12 04:47:31;;;;;;;31.70;19.50;;;13.30;99.90;;;;;;4905805;29;20186;-87
2021/09/12 04:49:57;;;;;;;30.77;16.92;;;13.30;99.90;;;;;;4904182;29;20189;-93
2021/09/12 04:52:23;;;;;;;36.35;18.33;;;;;;;;;;4927097;23;20260;-95
2021/09/12 04:54:49;;;;;;;34.28;18.77;;;;;;;;;;4885943;29;20238;-94
2021/09/12 04:57:15;;;;;;;35.72;18.40;;;13.50;99.90;;;;;;4870678;29;20212;-94
2021/09/12 04:59:41;;;;;;;29.77;17.35;;;;;;;;;;4957546;23;20160;-95
2021/09/12 05:02:07;;;;;;;32.35;18.40;;;13.80;99.90;;;;;;4905684;29;20278;-96
2021/09/12 05:04:33;;;;;;;34.70;18.40;;;;;;;;;;4890180;29;20211;-88
2021/09/12 05:06:59;;;;;;;34.03;18.58;;;;;;;;;;4919224;29;20199;-95
2021/09/12 05:09:25;;;;;;;30.85;18.17;;;;;;;;;;4917829;29;20193;-95
2021/09/12 05:11:51;;;;;;;30.20;18.25;;;14.00;99.90;;;;;;4917818;29;20265;-94
2021/09/12 05:14:17;;;;;;;26.58;16.55;;;;;;;;;;4914541;29;20193;-93
2021/09/12 05:16:42;;;;;;;28.95;17.83;;;14.10;99.90;;;;;;4899327;29;20221;-94
2021/09/12 05:19:08;;;;;;;36.38;18.50;;;13.90;99.90;;;;;;4918071;29;20187;-94
2021/09/12 05:21:33;;;;;;;34.60;18.17;;;14.30;99.90;;;;;;4918600;29;20197;-88
2021/09/12 05:23:59;;;;;;;33.45;19.48;;;;;;;;;;4897970;29;20186;-93
2021/09/12 05:26:25;;;;;;;32.25;18.73;;;14.10;99.90;;;;;;4913001;29;20254;-94
2021/09/12 05:28:51;;;;;;;32.42;19.23;;;14.20;99.90;;;;;;4913095;29;20224;-92
2021/09/12 05:31:17;;;;;;;33.20;19.33;;;14.20;99.90;;;;;;4898459;29;20245;-92
2021/09/12 05:33:43;;;;;;;31.30;18.17;;;14.30;99.90;;;;;;4897302;29;20186;-92
2021/09/12 05:36:09;;;;;;;33.75;17.30;;;14.40;99.90;;;;;;4895248;29;20653;-93
2021/09/12 05:38:34;;;;;;;33.95;20.40;;;14.40;99.90;;;;;;4912260;29;20245;-87
2021/09/12 05:41:00;;;;;;;31.80;18.05;;;14.90;99.90;;;;;;4914378;29;20186;-96
2021/09/12 05:43:26;;;;;;;30.48;17.33;;;14.60;99.90;;;;;;4912435;29;20244;-93
2021/09/12 05:45:52;;;;;;;29.63;17.17;;;14.70;99.90;;;;;;4911223;29;20234;-93
2021/09/12 05:48:18;;;;;;;28.80;17.65;;;;;;;;;;4962602;23;20220;-90
2021/09/12 05:50:43;;;;;;;30.92;17.38;;;14.50;99.90;;;;;;5585484;23;20244;-91
2021/09/12 05:55:47;;;;;;;31.58;18.83;;;;;;;;;;5161313;23;20235;-88
2021/09/12 05:58:13;;;;;;;30.85;17.98;;;14.70;99.90;;;;;;5030749;23;20244;-96
2021/09/12 06:03:15;;;;;;;36.38;19.15;;;;;;;;;;5596067;23;20235;-91
2021/09/12 06:05:42;;;;;;;29.92;18.33;;;14.70;99.90;;;;;;5100848;23;20229;-87
2021/09/12 06:08:10;;;;;;;35.05;19.58;;;14.70;99.90;;;;;;5400509;23;20231;-89
2021/09/12 06:13:12;;;;;;;33.75;18.65;;;;;;;;;;5378900;23;20260;-96
2021/09/12 06:20:49;;;;;;;28.77;17.67;;;;;;;;;;5249952;23;20252;-92
2021/09/12 06:23:15;;;;;;;33.65;19.40;;;;;;;;;;4938139;23;20281;-93
2021/09/12 06:25:41;;;;;;;26.40;17.02;;;15.10;99.90;;;;;;4902033;29;20200;-95
2021/09/12 06:28:07;;;;;;;30.08;17.33;;;;;;;;;;4897564;29;20186;-94
2021/09/12 06:30:33;;;;;;;33.78;18.52;;;;;;;;;;4892411;29;20580;-94
2021/09/12 06:32:59;;;;;;;30.38;17.65;;;15.40;99.90;;;;;;4889722;29;20579;-95
2021/09/12 06:35:25;;;;;;;29.73;18.85;;;;;;;;;;4890752;29;20338;-93
2021/09/12 06:37:51;;;;;;;31.27;18.50;;;15.70;99.90;;;;;;4884185;29;20214;-94
2021/09/12 06:40:17;;;;;;;32.17;18.65;;;;;;;;;;4899095;29;20208;-96
2021/09/12 06:42:43;;;;;;;33.75;19.08;;;15.90;99.90;;;;;;4898620;29;20182;-85
2021/09/12 06:45:09;;;;;;;33.15;18.80;;;;;;;;;;4984060;23;20261;-95
2021/09/12 06:47:36;;;;;;;37.03;20.08;;;16.20;99.90;;;;;;4920050;29;20241;-96
2021/09/12 06:50:02;;;;;;;30.30;18.42;;;;;;;;;;5415394;23;20236;-92
2021/09/12 06:55:42;;;;;;;31.58;18.35;;;16.40;99.90;;;;;;5134603;27;20600;-96
2021/09/12 06:58:07;;;;;;;32.58;18.27;;;16.70;99.90;;;;;;5111670;28;20182;-95
2021/09/12 07:00:33;;;;;;;33.00;20.35;;;16.90;99.90;;;;;;5063895;28;20188;-96
2021/09/12 07:02:59;;;;;;;33.35;19.85;;;17.00;99.90;;;;;;5095383;28;20194;-95
2021/09/12 07:05:25;;;;;;;30.63;19.75;;;17.10;99.90;;;;;;5100977;28;20191;-93
2021/09/12 07:07:50;;;;;;;29.45;19.38;;;17.20;99.90;;;;;;5105332;28;20235;-89
2021/09/12 07:10:19;;;;;;;39.95;20.77;;;17.20;99.90;;;;;;5085819;28;20274;-95
2021/09/12 07:12:46;;;;;;;33.03;20.88;;;17.20;99.90;;;;;;5099288;28;20262;-90
2021/09/12 07:15:12;;;;;;;31.83;20.10;;;17.30;99.90;;;;;;5099912;28;20236;-94
2021/09/12 07:17:38;;;;;;;40.03;20.75;;;17.40;99.90;;;;;;5097235;28;20190;-89
2021/09/12 07:20:05;;;;;;;39.72;22.67;;;17.50;99.90;;;;;;5111058;28;20185;-93
2021/09/12 07:22:30;;;;;;;39.60;22.50;;;17.30;99.90;;;;;;5111663;28;20262;-95
2021/09/12 07:24:56;;;;;;;32.63;20.65;;;17.20;99.90;;;;;;5114205;28;20162;-93
2021/09/12 07:27:22;;;;;;;39.65;22.70;;;;;;;;;;5112130;28;20182;-91
2021/09/12 07:29:48;;;;;;;35.92;23.05;;;17.30;99.90;;;;;;5109797;28;20666;-89
2021/09/12 07:32:14;;;;;;;38.08;24.48;;;17.40;99.90;;;;;;5111158;28;20185;-91
2021/09/12 07:34:39;;;;;;;40.65;25.48;;;17.50;99.90;;;;;;5113378;28;20685;-93
2021/09/12 07:37:06;;;;;;;46.20;25.95;;;17.60;99.90;;;;;;5111048;28;20184;-93
2021/09/12 07:39:32;;;;;;;37.45;24.25;;;17.60;99.90;;;;;;5112533;28;20177;-92
2021/09/12 07:41:58;;;;;;;40.30;25.23;;;17.60;99.90;;;;;;5113994;28;20178;-93
2021/09/12 07:44:24;;;;;;;37.95;24.10;;;;;;;;;;5122312;28;20185;-96
2021/09/12 07:46:49;;;;;;;35.90;23.70;;;17.70;99.90;;;;;;5122881;28;20186;-90
2021/09/12 07:49:15;;;;;;;43.13;24.95;;;17.90;99.90;;;;;;5114182;28;20181;-94
2021/09/12 07:51:41;;;;;;;42.70;23.80;;;18.00;99.90;;;;;;5111771;28;20174;-94
2021/09/12 07:54:06;;;;;;;36.60;23.10;;;18.20;99.90;;;;;;5111282;28;20312;-94
2021/09/12 07:56:32;;;;;;;39.88;22.70;;;18.30;99.90;;;;;;5111095;28;20174;-95
2021/09/12 07:58:57;;;;;;;36.72;22.70;;;18.50;99.90;;;;;;5110087;28;20182;-94
2021/09/12 08:01:23;;;;;;;35.47;23.10;;;18.60;99.90;;;;;;5093144;28;20545;-95
2021/09/12 08:03:49;;;;;;;40.00;23.85;;;18.70;99.90;;;;;;5087584;28;20190;-92
2021/09/12 08:06:15;;;;;;;31.40;21.88;;;18.80;99.90;;;;;;5089148;28;20269;-85
2021/09/12 08:08:41;;;;;;;33.47;22.10;;;;;;;;;;5081201;28;20648;-90
2021/09/12 08:11:06;;;;;;;34.75;21.60;;;19.20;99.90;;;;;;5075532;28;20171;-89
2021/09/12 08:13:36;;;;;;;29.40;20.13;;;19.30;99.90;;;;;;5079045;28;20194;-90
2021/09/12 08:16:01;;;;;;;36.58;22.17;;;19.50;99.90;;;;;;5085109;28;20183;-92
2021/09/12 08:18:27;;;;;;;32.50;22.15;;;19.60;99.90;;;;;;5075546;28;20520;-93
2021/09/12 08:20:53;;;;;;;35.17;21.85;;;19.60;99.90;;;;;;5077102;28;20225;-89
2021/09/12 08:23:18;;;;;;;32.80;21.40;;;19.70;99.90;;;;;;5075764;28;20581;-92
2021/09/12 08:25:46;;;;;;;30.90;21.02;;;19.80;99.90;;;;;;5077182;28;20521;-92
2021/09/12 08:28:12;;;;;;;31.35;20.10;;;19.90;99.90;;;;;;5073953;28;20267;-90
2021/09/12 08:30:37;;;;;;;31.38;20.85;;;20.00;99.90;;;;;;5076574;28;20206;-89
2021/09/12 08:33:10;;;;;;;34.65;20.67;;;20.20;99.90;;;;;;5077893;28;20659;-90
2021/09/12 08:35:36;;;;;;;27.90;19.25;;;20.30;99.90;;;;;;5076051;28;20194;-91
2021/09/12 08:38:02;;;;;;;32.00;21.40;;;20.40;99.90;;;;;;5073903;28;20198;-89
2021/09/12 08:40:27;;;;;;;28.83;19.20;;;20.50;99.90;;;;;;5079393;28;20666;-88
2021/09/12 08:42:54;;;;;;;37.78;19.77;;;20.70;99.90;;;;;;5084102;28;20211;-90
2021/09/12 08:45:23;;;;;;;32.05;19.27;;;20.80;99.90;;;;;;5083254;28;20179;-90
2021/09/12 08:47:49;;;;;;;28.45;20.20;;;21.00;99.90;;;;;;5083662;28;20217;-89
2021/09/12 08:50:15;;;;;;;31.15;20.67;;;21.10;99.90;;;;;;5082884;28;20166;-90
2021/09/12 08:52:43;;;;;;;30.33;20.27;;;21.20;99.90;;;;;;5084701;28;20263;-88
2021/09/12 08:55:08;;;;;;;30.58;19.60;;;21.40;99.90;;;;;;5081137;28;20238;-87
2021/09/12 08:57:34;;;;;;;32.00;19.58;;;21.50;99.90;;;;;;5092338;28;20221;-91
2021/09/12 09:00:00;;;;;;;29.83;20.60;;;21.70;99.90;;;;;;5097915;28;20210;-90
2021/09/12 09:02:27;;;;;;;35.50;19.38;;;21.80;99.90;;;;;;5096162;28;20175;-90
2021/09/12 09:05:04;;;;;;;31.95;21.25;;;21.90;99.90;;;;;;5095978;28;20183;-91
2021/09/12 09:07:31;;;;;;;31.73;19.55;;;22.10;99.90;;;;;;5086957;28;20175;-93
2021/09/12 09:09:58;;;;;;;33.25;20.55;;;22.20;99.90;;;;;;5085817;28;20178;-92
2021/09/12 09:12:32;;;;;;;32.53;19.13;;;22.30;99.90;;;;;;5085230;28;20183;-91
2021/09/12 09:15:05;;;;;;;30.08;20.27;;;22.40;99.90;;;;;;5084592;28;20202;-91
2021/09/12 09:17:54;;;;;;;26.38;19.20;;;22.60;99.90;;;;;;5083749;28;20176;-90
2021/09/12 09:20:26;;;;;;;30.83;18.90;;;22.70;99.90;;;;;;5084549;28;20160;-90
2021/09/12 09:22:52;;;;;;;37.13;26.65;;;22.90;99.90;;;;;;5087241;28;20246;-89
2021/09/12 09:25:23;;;;;;;31.08;19.58;;;23.00;99.90;;;;;;5089091;28;20176;-92
2021/09/12 09:28:00;;;;;;;32.10;22.02;;;23.10;99.90;;;;;;5096363;28;20185;-88
2021/09/12 09:30:46;;;;;;;39.92;26.17;;;23.10;99.90;;;;;;5099961;28;20243;-94
2021/09/12 09:33:27;;;;;;;31.10;21.63;;;23.20;99.90;;;;;;5080912;28;20186;-92
2021/09/12 09:35:58;;;;;;;27.02;20.15;;;23.30;99.90;;;;;;5102019;28;20206;-92
2021/09/12 09:38:29;;;;;;;22.20;16.52;;;23.50;99.90;;;;;;5092946;28;20159;-92
2021/09/12 09:41:08;;;;;;;16.20;11.98;;;23.80;99.90;;;;;;5085813;28;20174;-92
2021/09/12 09:43:51;;;;;;;16.23;12.35;;;23.80;99.90;;;;;;5089013;28;20185;-91
2021/09/12 09:46:30;;;;;;;15.88;11.82;;;23.90;99.90;;;;;;5086730;28;20163;-93
2021/09/12 09:49:17;;;;;;;16.75;11.50;;;24.00;99.90;;;;;;5085518;28;20163;-91
2021/09/12 09:51:43;;;;;;;14.70;10.73;;;24.10;99.90;;;;;;5076499;28;20186;-92
2021/09/12 09:54:09;;;;;;;14.13;11.18;;;24.30;99.90;;;;;;5050465;28;20278;-92
2021/09/12 09:56:35;;;;;;;15.55;11.30;;;24.30;99.90;;;;;;5083380;28;20273;-93
2021/09/12 09:59:00;;;;;;;16.92;11.93;;;24.40;99.90;;;;;;5072608;28;20628;-91
2021/09/12 10:01:28;;;;;;;23.98;11.38;;;24.40;99.90;;;;;;5078950;28;20659;-93
2021/09/12 10:03:54;;;;;;;15.73;11.38;;;24.50;99.90;;;;;;5086074;28;20186;-91
2021/09/12 10:06:22;;;;;;;15.30;12.13;;;24.60;99.90;;;;;;5096567;28;20238;-89
2021/09/12 10:08:48;;;;;;;17.27;11.82;;;24.70;99.90;;;;;;5108815;28;20675;-94
2021/09/12 10:11:15;;;;;;;15.65;10.68;;;25.00;99.90;;;;;;5103541;28;20202;-92
2021/09/12 10:13:43;;;;;;;15.07;11.40;;;25.00;99.90;;;;;;5098512;28;20234;-91
2021/09/12 10:16:10;;;;;;;16.58;11.95;;;25.00;99.90;;;;;;5083503;28;20193;-93
2021/09/12 10:18:38;;;;;;;15.27;11.05;;;25.00;99.90;;;;;;5081371;28;20179;-94
2021/09/12 10:21:28;;;;;;;14.18;10.25;;;25.00;99.90;;;;;;5082320;28;20637;-94
2021/09/12 10:24:08;;;;;;;14.82;10.15;;;25.10;99.90;;;;;;5084478;28;20170;-94
2021/09/12 10:26:35;;;;;;;14.85;9.52;;;25.10;99.90;;;;;;5084574;28;20631;-92
2021/09/12 10:29:02;;;;;;;10.90;8.48;;;25.20;99.90;;;;;;5090289;28;20175;-96
2021/09/12 10:31:27;;;;;;;11.55;8.20;;;25.30;99.90;;;;;;5087438;28;20182;-94
2021/09/12 10:34:13;;;;;;;13.00;8.68;;;25.30;99.90;;;;;;5077827;28;20237;-91
2021/09/12 10:36:41;;;;;;;12.65;8.13;;;25.30;99.90;;;;;;5078719;28;20171;-91
2021/09/12 10:39:31;;;;;;;13.13;9.60;;;25.40;99.90;;;;;;5082111;28;20232;-91
2021/09/12 10:42:12;;;;;;;12.48;8.05;;;25.40;99.90;;;;;;5083982;28;20532;-92
2021/09/12 10:44:38;;;;;;;12.40;8.75;;;25.40;99.90;;;;;;5081668;28;20179;-92
2021/09/12 10:47:06;;;;;;;11.10;7.80;;;25.50;99.90;;;;;;5103569;28;20179;-94
2021/09/12 10:52:10;;;;;;;10.18;7.68;;;;;;;;;;5119079;22;20236;-90
2021/09/12 10:55:06;;;;;;;15.10;9.00;;;25.80;99.90;;;;;;5024670;28;20197;-89
2021/09/12 10:57:33;;;;;;;10.15;8.35;;;25.60;99.90;;;;;;5016176;28;20224;-90
2021/09/12 10:59:59;;;;;;;10.52;8.30;;;25.70;99.90;;;;;;5024248;28;20235;-89
2021/09/12 11:02:25;;;;;;;12.40;8.25;;;25.70;99.90;;;;;;5017006;28;20201;-90
2021/09/12 11:04:53;;;;;;;13.60;9.30;;;25.70;99.90;;;;;;5014851;28;20185;-89
2021/09/12 11:07:18;;;;;;;28.48;8.70;;;25.70;99.90;;;;;;5017323;28;20173;-87
2021/09/12 11:09:44;;;;;;;12.90;8.75;;;25.70;99.90;;;;;;5010674;28;20232;-86
2021/09/12 11:12:10;;;;;;;13.07;9.50;;;25.80;99.90;;;;;;4995620;28;20173;-88
2021/09/12 11:14:37;;;;;;;10.05;8.15;;;25.70;99.90;;;;;;5010265;28;20246;-88
2021/09/12 11:17:11;;;;;;;14.70;9.30;;;25.90;99.90;;;;;;5012286;28;20169;-88
2021/09/12 11:19:37;;;;;;;12.27;8.50;;;25.70;99.90;;;;;;5011473;28;20174;-89
2021/09/12 11:22:04;;;;;;;14.80;11.52;;;25.80;99.90;;;;;;5012291;28;20181;-88
2021/09/12 11:24:30;;;;;;;11.85;9.45;;;25.80;99.90;;;;;;5012251;28;20189;-90
2021/09/12 11:27:02;;;;;;;15.88;8.85;;;25.60;99.90;;;;;;5014550;28;20181;-90
2021/09/12 11:29:39;;;;;;;17.77;11.60;;;25.40;99.90;;;;;;5017933;28;20240;-88
2021/09/12 11:32:06;;;;;;;15.05;12.00;;;25.00;99.90;;;;;;5024181;28;20201;-90
2021/09/12 11:34:34;;;;;;;14.70;9.90;;;25.30;99.90;;;;;;5022805;28;20205;-91
2021/09/12 11:37:11;;;;;;;12.30;9.85;;;25.10;99.90;;;;;;5023571;28;20642;-89
2021/09/12 11:39:40;;;;;;;11.65;10.35;;;25.20;99.90;;;;;;5029439;28;20169;-89
2021/09/12 11:42:08;;;;;;;17.90;12.02;;;25.20;99.90;;;;;;5035532;28;20173;-87
2021/09/12 11:44:36;;;;;;;21.65;15.10;;;25.20;99.90;;;;;;5037580;28;20176;-91
2021/09/12 11:47:06;;;;;;;14.07;10.63;;;25.20;99.90;;;;;;5038219;28;20153;-90
2021/09/12 11:49:32;;;;;;;13.65;10.15;;;;;;;;;;5052243;28;20213;-91
2021/09/12 11:51:58;;;;;;;12.88;10.25;;;25.40;99.90;;;;;;5047423;28;20251;-88
2021/09/12 11:54:35;;;;;;;19.98;11.77;;;25.40;99.90;;;;;;5021853;28;20209;-92
2021/09/12 11:57:08;;;;;;;17.67;11.77;;;25.40;99.90;;;;;;5026375;28;20212;-91
2021/09/12 11:59:45;;;;;;;14.73;11.68;;;25.10;99.90;;;;;;5030961;28;20166;-90
2021/09/12 12:02:13;;;;;;;16.17;11.77;;;25.20;99.90;;;;;;5031059;28;20260;-90
2021/09/12 12:04:41;;;;;;;16.35;12.98;;;25.00;99.90;;;;;;5137379;22;21390;-90
2021/09/12 12:07:07;;;;;;;17.15;12.57;;;;;;;;;;5008385;28;20190;-91
2021/09/12 12:09:47;;;;;;;15.32;12.15;;;24.90;99.90;;;;;;4995480;28;20201;-91
2021/09/12 12:12:15;;;;;;;19.42;13.82;;;25.00;99.90;;;;;;5016784;28;20197;-89
2021/09/12 12:14:44;;;;;;;12.48;10.02;;;25.00;99.90;;;;;;5009497;28;20675;-90
2021/09/12 12:17:14;;;;;;;13.73;9.38;;;25.20;99.90;;;;;;4996828;28;20221;-91
2021/09/12 12:19:40;;;;;;;14.82;7.93;;;;;;;;;;5011552;28;20226;-93
2021/09/12 12:22:07;;;;;;;11.73;7.90;;;25.30;99.90;;;;;;4996437;28;20190;-89
2021/09/12 12:24:44;;;;;;;8.63;7.35;;;25.40;99.90;;;;;;5070539;23;20220;-90
2021/09/12 12:27:13;;;;;;;11.45;6.30;;;25.30;99.90;;;;;;5219886;22;20253;-90
2021/09/12 12:29:42;;;;;;;11.13;7.30;;;25.60;99.90;;;;;;5029985;28;20261;-90
2021/09/12 12:32:10;;;;;;;9.60;7.72;;;25.50;99.90;;;;;;5052533;23;20193;-91
2021/09/12 12:34:42;;;;;;;10.48;7.05;;;25.40;99.90;;;;;;5052632;28;20231;-88
2021/09/12 12:37:12;;;;;;;9.63;7.50;;;25.40;99.90;;;;;;5054649;28;20283;-89
2021/09/12 12:39:38;;;;;;;9.23;7.47;;;25.40;99.90;;;;;;5056736;28;20252;-92
2021/09/12 12:42:04;;;;;;;9.25;7.78;;;25.60;99.90;;;;;;5050494;28;20195;-90
2021/09/12 12:44:43;;;;;;;12.95;8.20;;;25.80;99.90;;;;;;5049815;28;20202;-89
2021/09/12 12:47:09;;;;;;;11.48;8.13;;;;;;;;;;5041177;28;20202;-91
2021/09/12 12:49:35;;;;;;;9.27;7.25;;;25.90;99.90;;;;;;5036965;28;20222;-91
2021/09/12 12:52:08;;;;;;;9.30;7.25;;;25.70;99.90;;;;;;5055833;28;20645;-92
2021/09/12 12:54:38;;;;;;;12.27;7.47;;;25.60;99.90;;;;;;5059505;28;20563;-92
2021/09/12 12:57:07;;;;;;;9.85;7.43;;;;;;;;;;5057608;28;20525;-90
2021/09/12 12:59:33;;;;;;;9.88;6.72;;;25.60;99.90;;;;;;5061060;28;20176;-91
2021/09/12 13:01:59;;;;;;;16.15;7.22;;;25.90;99.90;;;;;;5034093;28;20203;-92
2021/09/12 13:04:25;;;;;;;9.88;6.30;;;26.00;99.90;;;;;;5062946;28;20648;-89
2021/09/12 13:06:51;;;;;;;7.05;6.22;;;;;;;;;;5042362;28;20184;-91
2021/09/12 13:09:16;;;;;;;7.63;6.32;;;26.40;99.90;;;;;;5056654;28;20267;-91
2021/09/12 13:11:44;;;;;;;8.30;7.10;;;26.40;99.90;;;;;;5023702;28;20216;-92
2021/09/12 13:14:13;;;;;;;7.55;6.40;;;26.60;99.90;;;;;;5020674;28;20232;-91
2021/09/12 13:16:39;;;;;;;10.65;7.20;;;;;;;;;;5022279;28;20185;-91
2021/09/12 13:19:05;;;;;;;9.20;6.57;;;;;;;;;;5028054;28;20177;-94
2021/09/12 13:21:31;;;;;;;13.00;6.68;;;26.90;99.90;;;;;;5027711;28;20189;-92
2021/09/12 13:23:57;;;;;;;13.30;7.80;;;27.00;99.90;;;;;;5028230;28;20181;-93
2021/09/12 13:26:22;;;;;;;8.57;6.97;;;27.00;99.90;;;;;;5024681;28;20177;-91
2021/09/12 13:28:48;;;;;;;7.82;6.82;;;;;;;;;;5008074;28;20293;-91
2021/09/12 13:31:14;;;;;;;8.70;6.80;;;27.40;99.90;;;;;;5026565;28;20195;-91
2021/09/12 13:33:40;;;;;;;12.45;7.32;;;;;;;;;;5054031;23;20262;-93